Time,TemperatureF,DewpointF,PressureIn,WindDirection,WindDirectionDegrees,WindSpeedMPH,WindSpeedGustMPH,Humidity,HourlyPrecipIn,Conditions,Clouds,dailyrainin,SoftwareType,DateUTC
2013-04-14 00:03:00,20.0,15.0,-100.00,West,280,2.0,3.0,79,0.00,,,-99.99,,2013-04-14 05:03:00,
2013-04-14 00:12:00,20.0,15.0,-100.00,West,280,2.0,3.0,79,0.00,,,-99.99,,2013-04-14 05:12:00,
2013-04-14 00:22:00,20.0,15.0,-100.00,West,280,2.0,3.0,79,0.00,,,-99.99,,2013-04-14 05:22:00,
2013-04-14 00:52:00,18.0,14.0,-100.00,West,280,1.0,3.0,83,0.00,,,-99.99,,2013-04-14 05:52:00,
2013-04-14 01:02:00,18.0,14.0,-100.00,West,280,1.0,3.0,83,0.00,,,-99.99,,2013-04-14 06:02:00,
2013-04-14 01:12:00,18.0,14.0,-100.00,West,280,1.0,3.0,83,0.00,,,-99.99,,2013-04-14 06:12:00,
2013-04-14 01:22:00,18.0,14.0,-100.00,West,280,1.0,3.0,83,0.00,,,-99.99,,2013-04-14 06:22:00,
2013-04-14 01:52:00,16.0,12.0,-100.00,WNW,290,1.0,3.0,84,0.00,,,-99.99,,2013-04-14 06:52:00,
2013-04-14 02:02:00,16.0,12.0,-100.00,WNW,290,1.0,3.0,84,0.00,,,-99.99,,2013-04-14 07:02:00,
2013-04-14 02:12:00,16.0,12.0,-100.00,WNW,290,1.0,3.0,84,0.00,,,-99.99,,2013-04-14 07:12:00,
2013-04-14 02:22:00,16.0,12.0,-100.00,WNW,290,1.0,3.0,84,0.00,,,-99.99,,2013-04-14 07:22:00,
2013-04-14 02:52:00,14.0,11.0,-100.00,West,270,2.0,2.0,85,0.00,,,-99.99,,2013-04-14 07:52:00,
2013-04-14 03:02:00,14.0,11.0,-100.00,West,270,2.0,2.0,85,0.00,,,-99.99,,2013-04-14 08:02:00,
2013-04-14 03:12:00,14.0,11.0,-100.00,West,270,2.0,2.0,85,0.00,,,-99.99,,2013-04-14 08:12:00,
2013-04-14 03:22:00,14.0,11.0,-100.00,West,270,2.0,2.0,85,0.00,,,-99.99,,2013-04-14 08:22:00,
2013-04-14 03:52:00,13.0,9.0,-100.00,WNW,290,1.0,1.0,85,0.00,,,-99.99,,2013-04-14 08:52:00,
2013-04-14 04:03:00,13.0,9.0,-100.00,WNW,290,1.0,1.0,85,0.00,,,-99.99,,2013-04-14 09:03:00,
2013-04-14 04:12:00,13.0,9.0,-100.00,WNW,290,1.0,1.0,85,0.00,,,-99.99,,2013-04-14 09:12:00,
2013-04-14 04:22:00,13.0,9.0,-100.00,WNW,290,1.0,1.0,85,0.00,,,-99.99,,2013-04-14 09:22:00,
2013-04-14 04:54:00,12.0,8.0,-100.00,West,280,2.0,3.0,86,0.00,,,-99.99,,2013-04-14 09:54:00,
2013-04-14 05:03:00,12.0,8.0,-100.00,West,280,2.0,3.0,86,0.00,,,-99.99,,2013-04-14 10:03:00,
2013-04-14 05:12:00,12.0,8.0,-100.00,West,280,2.0,3.0,86,0.00,,,-99.99,,2013-04-14 10:12:00,
2013-04-14 05:23:00,12.0,8.0,-100.00,West,280,2.0,3.0,86,0.00,,,-99.99,,2013-04-14 10:23:00,
2013-04-14 05:52:00,10.0,7.0,-100.00,West,275,2.0,3.0,85,0.00,,,-99.99,,2013-04-14 10:52:00,
2013-04-14 06:02:00,10.0,7.0,-100.00,West,275,2.0,3.0,85,0.00,,,-99.99,,2013-04-14 11:02:00,
2013-04-14 06:12:00,10.0,7.0,-100.00,West,275,2.0,3.0,85,0.00,,,-99.99,,2013-04-14 11:12:00,
2013-04-14 06:22:00,10.0,7.0,-100.00,West,275,2.0,3.0,85,0.00,,,-99.99,,2013-04-14 11:22:00,
2013-04-14 06:53:00,10.0,6.0,-100.00,WNW,285,2.0,3.0,84,0.00,,,-99.99,,2013-04-14 11:53:00,
2013-04-14 07:02:00,10.0,6.0,-100.00,WNW,285,2.0,3.0,84,0.00,,,-99.99,,2013-04-14 12:02:00,
2013-04-14 07:12:00,10.0,6.0,-100.00,WNW,285,2.0,3.0,84,0.00,,,-99.99,,2013-04-14 12:12:00,
2013-04-14 07:22:00,10.0,6.0,-100.00,WNW,285,2.0,3.0,84,0.00,,,-99.99,,2013-04-14 12:22:00,
2013-04-14 07:52:00,15.0,9.0,-100.00,West,280,2.0,3.0,78,0.00,,,-99.99,,2013-04-14 12:52:00,
2013-04-14 08:02:00,15.0,9.0,-100.00,West,280,2.0,3.0,78,0.00,,,-99.99,,2013-04-14 13:02:00,
2013-04-14 08:12:00,15.0,9.0,-100.00,West,280,2.0,3.0,78,0.00,,,-99.99,,2013-04-14 13:12:00,
2013-04-14 08:22:00,15.0,9.0,-100.00,West,280,2.0,3.0,78,0.00,,,-99.99,,2013-04-14 13:22:00,
2013-04-14 08:43:00,26.0,16.0,-100.00,ENE,75,0.0,1.0,66,0.00,,,-99.99,,2013-04-14 13:43:00,
2013-04-14 08:52:00,28.0,16.0,-100.00,East,80,2.0,2.0,60,0.00,,,-99.99,,2013-04-14 13:52:00,
2013-04-14 09:02:00,28.0,16.0,-100.00,East,80,2.0,2.0,60,0.00,,,-99.99,,2013-04-14 14:02:00,
2013-04-14 09:12:00,28.0,16.0,-100.00,East,80,2.0,2.0,60,0.00,,,-99.99,,2013-04-14 14:12:00,
2013-04-14 09:22:00,28.0,16.0,-100.00,East,80,2.0,2.0,60,0.00,,,-99.99,,2013-04-14 14:22:00,
2013-04-14 09:53:00,33.0,15.0,-100.00,ESE,105,2.0,6.0,46,0.00,,,-99.99,,2013-04-14 14:53:00,
2013-04-14 10:02:00,33.0,15.0,-100.00,ESE,105,2.0,6.0,46,0.00,,,-99.99,,2013-04-14 15:02:00,
2013-04-14 10:12:00,33.0,15.0,-100.00,ESE,105,2.0,6.0,46,0.00,,,-99.99,,2013-04-14 15:12:00,
2013-04-14 10:22:00,33.0,15.0,-100.00,ESE,105,2.0,6.0,46,0.00,,,-99.99,,2013-04-14 15:22:00,
2013-04-14 10:53:00,35.0,14.0,-100.00,East,90,9.0,15.0,42,0.00,,,-99.99,,2013-04-14 15:53:00,
2013-04-14 11:04:00,35.0,14.0,-100.00,East,90,9.0,15.0,42,0.00,,,-99.99,,2013-04-14 16:04:00,
2013-04-14 11:13:00,35.0,14.0,-100.00,East,90,9.0,15.0,42,0.00,,,-99.99,,2013-04-14 16:13:00,
2013-04-14 11:22:00,35.0,14.0,-100.00,East,90,9.0,15.0,42,0.00,,,-99.99,,2013-04-14 16:22:00,
2013-04-14 11:43:00,37.0,14.0,-100.00,East,85,10.0,16.0,39,0.00,,,-99.99,,2013-04-14 16:43:00,
2013-04-14 11:53:00,37.0,13.0,-100.00,East,90,11.0,17.0,38,0.00,,,-99.99,,2013-04-14 16:53:00,
2013-04-14 12:02:00,37.0,13.0,-100.00,East,90,11.0,17.0,38,0.00,,,-99.99,,2013-04-14 17:02:00,
2013-04-14 12:13:00,37.0,13.0,-100.00,East,90,11.0,17.0,38,0.00,,,-99.99,,2013-04-14 17:13:00,
2013-04-14 12:22:00,37.0,13.0,-100.00,East,90,11.0,17.0,38,0.00,,,-99.99,,2013-04-14 17:22:00,
2013-04-14 12:53:00,38.0,13.0,-100.00,East,95,10.0,16.0,36,0.00,,,-99.99,,2013-04-14 17:53:00,
2013-04-14 13:02:00,38.0,13.0,-100.00,East,95,10.0,16.0,36,0.00,,,-99.99,,2013-04-14 18:02:00,
2013-04-14 13:12:00,38.0,13.0,-100.00,East,95,10.0,16.0,36,0.00,,,-99.99,,2013-04-14 18:12:00,
2013-04-14 13:22:00,38.0,13.0,-100.00,East,95,10.0,16.0,36,0.00,,,-99.99,,2013-04-14 18:22:00,
2013-04-14 13:53:00,35.0,13.0,-100.00,East,85,9.0,21.0,40,0.00,,,-99.99,,2013-04-14 18:53:00,
2013-04-14 14:03:00,35.0,13.0,-100.00,East,85,9.0,21.0,40,0.00,,,-99.99,,2013-04-14 19:03:00,
2013-04-14 14:12:00,35.0,13.0,-100.00,East,85,9.0,21.0,40,0.00,,,-99.99,,2013-04-14 19:12:00,
2013-04-14 14:22:00,35.0,13.0,-100.00,East,85,9.0,21.0,40,0.00,,,-99.99,,2013-04-14 19:22:00,
2013-04-14 14:53:00,36.0,15.0,-100.00,ENE,70,7.0,21.0,41,0.00,,,-99.99,,2013-04-14 19:53:00,
2013-04-14 15:02:00,36.0,15.0,-100.00,ENE,70,7.0,21.0,41,0.00,,,-99.99,,2013-04-14 20:02:00,
2013-04-14 15:13:00,36.0,15.0,-100.00,ENE,70,7.0,21.0,41,0.00,,,-99.99,,2013-04-14 20:13:00,
2013-04-14 15:22:00,36.0,15.0,-100.00,ENE,70,7.0,21.0,41,0.00,,,-99.99,,2013-04-14 20:22:00,
2013-04-14 15:52:00,35.0,16.0,-100.00,East,95,14.0,27.0,45,0.00,,,-99.99,,2013-04-14 20:52:00,
2013-04-14 16:02:00,35.0,16.0,-100.00,East,95,14.0,27.0,45,0.00,,,-99.99,,2013-04-14 21:02:00,
2013-04-14 16:12:00,35.0,16.0,-100.00,East,95,14.0,27.0,45,0.00,,,-99.99,,2013-04-14 21:12:00,
2013-04-14 16:23:00,35.0,16.0,-100.00,East,95,14.0,27.0,45,0.00,,,-99.99,,2013-04-14 21:23:00,
2013-04-14 16:43:00,33.0,18.0,-100.00,ENE,70,11.0,30.0,54,0.00,,,-99.99,,2013-04-14 21:43:00,
2013-04-14 16:53:00,33.0,18.0,-100.00,ENE,70,11.0,30.0,54,0.00,,,-99.99,,2013-04-14 21:53:00,
2013-04-14 17:03:00,33.0,18.0,-100.00,ENE,70,11.0,30.0,54,0.00,,,-99.99,,2013-04-14 22:03:00,
2013-04-14 17:13:00,33.0,18.0,-100.00,ENE,70,11.0,30.0,54,0.00,,,-99.99,,2013-04-14 22:13:00,
2013-04-14 17:53:00,31.0,27.0,-100.00,East,90,12.0,21.0,87,2.00,,,-99.99,,2013-04-14 22:53:00,
2013-04-14 18:02:00,31.0,27.0,-100.00,East,90,12.0,21.0,87,2.00,,,-99.99,,2013-04-14 23:02:00,
2013-04-14 18:12:00,31.0,27.0,-100.00,East,90,12.0,21.0,87,2.00,,,-99.99,,2013-04-14 23:12:00,
2013-04-14 18:22:00,31.0,27.0,-100.00,East,90,12.0,21.0,87,2.00,,,-99.99,,2013-04-14 23:22:00,
2013-04-14 18:53:00,31.0,28.0,-100.00,East,85,12.0,21.0,89,0.10,,,-99.99,,2013-04-14 23:53:00,
2013-04-14 19:02:00,31.0,28.0,-100.00,East,85,12.0,21.0,89,0.10,,,-99.99,,2013-04-15 00:02:00,
2013-04-14 19:12:00,31.0,28.0,-100.00,East,85,12.0,21.0,89,0.10,,,-99.99,,2013-04-15 00:12:00,
2013-04-14 19:23:00,31.0,28.0,-100.00,East,85,12.0,21.0,89,0.10,,,-99.99,,2013-04-15 00:23:00,
2013-04-14 19:52:00,31.0,29.0,-100.00,East,90,12.0,22.0,89,0.96,,,-99.99,,2013-04-15 00:52:00,
2013-04-14 20:02:00,31.0,29.0,-100.00,East,90,12.0,22.0,89,0.96,,,-99.99,,2013-04-15 01:02:00,
2013-04-14 20:12:00,31.0,29.0,-100.00,East,90,12.0,22.0,89,0.96,,,-99.99,,2013-04-15 01:12:00,
2013-04-14 20:23:00,31.0,29.0,-100.00,East,90,12.0,22.0,89,0.96,,,-99.99,,2013-04-15 01:23:00,
2013-04-14 20:42:00,31.0,28.0,-100.00,East,80,11.0,23.0,89,0.31,,,-99.99,,2013-04-15 01:42:00,
2013-04-14 20:52:00,31.0,28.0,-100.00,East,80,11.0,23.0,89,0.31,,,-99.99,,2013-04-15 01:52:00,
2013-04-14 21:03:00,31.0,28.0,-100.00,East,80,11.0,23.0,89,0.31,,,-99.99,,2013-04-15 02:03:00,
2013-04-14 21:12:00,31.0,28.0,-100.00,East,80,11.0,23.0,89,0.31,,,-99.99,,2013-04-15 02:12:00,
2013-04-14 21:22:00,31.0,28.0,-100.00,East,80,11.0,23.0,89,0.31,,,-99.99,,2013-04-15 02:22:00,
2013-04-14 21:53:00,31.0,28.0,-100.00,East,80,12.0,29.0,89,0.16,,,-99.99,,2013-04-15 02:53:00,
2013-04-14 22:03:00,31.0,28.0,-100.00,East,80,12.0,29.0,89,0.16,,,-99.99,,2013-04-15 03:03:00,
2013-04-14 22:12:00,31.0,28.0,-100.00,East,80,12.0,29.0,89,0.16,,,-99.99,,2013-04-15 03:12:00,
2013-04-14 22:22:00,31.0,28.0,-100.00,East,80,12.0,29.0,89,0.16,,,-99.99,,2013-04-15 03:22:00,
2013-04-14 22:43:00,31.0,28.0,-100.00,East,80,9.0,23.0,89,2.59,,,-99.99,,2013-04-15 03:43:00,
2013-04-14 22:55:00,31.0,28.0,-100.00,East,80,9.0,23.0,89,2.59,,,-99.99,,2013-04-15 03:55:00,
2013-04-14 23:03:00,31.0,28.0,-100.00,East,80,9.0,23.0,89,2.59,,,-99.99,,2013-04-15 04:03:00,
2013-04-14 23:13:00,31.0,28.0,-100.00,East,80,9.0,23.0,89,2.59,,,-99.99,,2013-04-15 04:13:00,
2013-04-14 23:22:00,31.0,28.0,-100.00,East,80,9.0,23.0,89,2.59,,,-99.99,,2013-04-15 04:22:00,
2013-04-14 23:53:00,31.0,28.0,-100.00,East,85,12.0,25.0,89,0.00,,,-99.99,,2013-04-15 04:53:00,